Aeroporto :







RITROVATECI SU...

 
LOGIN :

Iscrizione | Disclaimer

   EN    FR    IT 

 









Sommario :    VFR   VFR Marginale   IFR   IFR Intensivo   IFR Molto Intensivo
Visibilità : 
Base nubi : 
>= 8 km
>= 3000ft
5 / 8 km
1000 / 3000 ft
1500m / 5 km
500 / 1000 ft
800 / 1500m
200 / 500 ft
< 800m
< 200 ft
Simboli :   Temporali  Nebbia  Neve Forte  Precipitazioni Forti  Vento > 20 kt






- Altitudine del aeroporto : 38 ft
- Codice IATA : TAB


TTCP - Crown Point Int.

ULTIMO METAR :
  • 021000Z 09005KT 9999 FEW012 25/22 Q1014 NOSIG

METARs OBSOLETI :
  • 020900Z 07003KT 9999 FEW012 25/22 Q1013 NOSIG
  • 020800Z 10006KT 9999 FEW016 25/22 Q1013 NOSIG

TAF TAF TTCP
Valido dal 02 a 06 ore il 03 a 06 ore UTC


020400Z 0206/0306 09005KT 9999 FEW016
BECMG 0212/0214 11014KT FEW020
BECMG 0223/0301 10005KT FEW016
FIR TTZP / America del Nord



MetMap, La meteo Aeronautica in un colpo d'occhio ! - Copyright ORBIFLY Dicembre 2007 - Disclaimer

ORBIFLY MET'MAP TEAM :

Programmazione e sviluppo : Alexandra Zaïnal
Concezione : Baudouin d'Aumeries
Aiuto per la programmazione : Marc-Olivier Méhu
Supporto tecnico e logistico : Manuel Goepfert
Aiuto per la traduzione : Arnaldo La Scala

Contatto : metmap@orbifly.com




FONTI E CREDITI :

   NOAA